createdAt,value
2022-12-31T00:01:32.823Z,29.40
2022-12-31T00:04:21.976Z,29.53
2022-12-31T00:07:10.694Z,30.47
2022-12-31T00:09:59.444Z,29.43
2022-12-31T00:12:48.302Z,29.90
2022-12-31T00:15:38.737Z,29.20
2022-12-31T00:18:28.171Z,30.67
2022-12-31T00:21:17.939Z,30.10
2022-12-31T00:24:08.091Z,31.00
2022-12-31T00:26:56.902Z,31.13
2022-12-31T00:29:45.659Z,30.47
2022-12-31T00:32:35.834Z,29.73
2022-12-31T00:35:24.589Z,30.47
2022-12-31T00:38:13.282Z,30.87
2022-12-31T00:41:02.048Z,29.53
2022-12-31T00:43:51.083Z,29.43
2022-12-31T00:49:28.903Z,28.90
2022-12-31T00:52:18.421Z,28.90
2022-12-31T00:55:08.387Z,30.23
2022-12-31T00:57:57.095Z,28.63
2022-12-31T01:00:45.855Z,29.07
2022-12-31T01:03:34.613Z,27.80
2022-12-31T01:06:25.138Z,27.40
2022-12-31T01:09:15.336Z,28.10
2022-12-31T01:12:04.238Z,27.07
2022-12-31T01:14:53.139Z,27.57
2022-12-31T01:17:42.061Z,27.40
2022-12-31T01:20:31.047Z,26.73
2022-12-31T01:23:25.127Z,26.10
2022-12-31T01:26:15.308Z,26.27
2022-12-31T01:29:04.278Z,24.77
2022-12-31T01:31:53.104Z,25.23
2022-12-31T01:34:42.102Z,25.50
2022-12-31T01:37:30.909Z,25.10
2022-12-31T01:40:21.142Z,24.73
2022-12-31T01:43:16.969Z,25.57
2022-12-31T01:46:05.949Z,24.90
2022-12-31T01:48:57.773Z,24.00
2022-12-31T01:51:50.062Z,26.60
2022-12-31T01:54:42.963Z,24.63
2022-12-31T01:57:33.574Z,23.93
2022-12-31T02:00:22.528Z,25.53
2022-12-31T02:03:11.707Z,23.53
2022-12-31T02:06:05.100Z,22.87
2022-12-31T02:08:53.911Z,22.17
2022-12-31T02:11:42.746Z,23.23
2022-12-31T02:14:37.500Z,21.53
2022-12-31T02:17:33.839Z,22.20
2022-12-31T02:21:06.916Z,21.30
2022-12-31T02:24:29.269Z,22.17
2022-12-31T02:27:30.661Z,21.37
2022-12-31T02:30:22.840Z,20.17
2022-12-31T02:33:19.267Z,20.17
2022-12-31T02:36:14.034Z,20.13
2022-12-31T02:39:05.872Z,20.00
2022-12-31T02:41:54.919Z,19.43
2022-12-31T02:44:44.871Z,18.70
2022-12-31T02:47:47.179Z,17.53
2022-12-31T02:50:55.689Z,17.57
2022-12-31T02:54:20.405Z,17.43
2022-12-31T02:57:16.752Z,17.10
2022-12-31T03:00:25.487Z,16.50
2022-12-31T03:03:15.611Z,16.57
2022-12-31T03:06:05.531Z,16.70
2022-12-31T03:09:11.711Z,15.97
2022-12-31T03:12:18.567Z,17.20
2022-12-31T03:15:20.042Z,17.10
2022-12-31T03:18:10.812Z,17.23
2022-12-31T03:21:18.087Z,16.10
2022-12-31T03:24:24.894Z,16.77
2022-12-31T03:27:13.956Z,17.30
2022-12-31T03:30:02.726Z,16.87
2022-12-31T03:32:52.792Z,17.27
2022-12-31T03:35:45.778Z,16.43
2022-12-31T03:38:36.113Z,16.20
2022-12-31T03:41:24.730Z,15.97
2022-12-31T03:44:13.737Z,15.17
2022-12-31T03:47:02.528Z,16.00
2022-12-31T03:49:51.388Z,15.77
2022-12-31T03:52:40.733Z,16.27
2022-12-31T03:55:30.775Z,15.77
2022-12-31T03:58:19.529Z,15.53
2022-12-31T04:01:08.558Z,15.37
2022-12-31T04:03:57.306Z,16.10
2022-12-31T04:06:46.070Z,15.73
2022-12-31T04:09:34.922Z,15.13
2022-12-31T04:12:25.829Z,15.50
2022-12-31T04:15:18.619Z,15.17
2022-12-31T04:18:07.502Z,15.50
2022-12-31T04:20:56.135Z,14.17
2022-12-31T04:23:48.993Z,15.20
2022-12-31T04:26:37.911Z,14.67
2022-12-31T04:29:28.405Z,14.83
2022-12-31T04:32:17.617Z,14.30
2022-12-31T04:35:07.432Z,15.17
2022-12-31T04:37:56.203Z,15.07
2022-12-31T04:41:00.678Z,14.73
2022-12-31T04:43:51.331Z,14.77
2022-12-31T04:46:41.497Z,14.93
2022-12-31T04:49:30.185Z,14.63
2022-12-31T04:52:19.014Z,15.03
2022-12-31T04:55:08.329Z,14.33
2022-12-31T04:57:56.961Z,15.03
2022-12-31T05:00:49.916Z,14.90
2022-12-31T05:03:40.444Z,15.63
2022-12-31T05:06:29.245Z,14.67
2022-12-31T05:09:17.923Z,14.27
2022-12-31T05:12:07.262Z,14.07
2022-12-31T05:14:55.983Z,14.50
2022-12-31T05:17:44.958Z,15.17
2022-12-31T05:20:35.189Z,14.20
2022-12-31T05:23:23.857Z,15.10
2022-12-31T05:26:12.900Z,15.30
2022-12-31T05:29:01.802Z,15.83
2022-12-31T05:31:50.516Z,15.80
2022-12-31T05:34:39.440Z,15.33
2022-12-31T05:37:30.418Z,15.43
2022-12-31T05:40:19.606Z,16.10
2022-12-31T05:43:08.332Z,16.10
2022-12-31T05:45:57.092Z,16.07
2022-12-31T05:48:45.859Z,14.90
2022-12-31T05:51:34.578Z,16.63
2022-12-31T05:54:24.719Z,15.90
2022-12-31T05:57:13.640Z,16.77
2022-12-31T06:00:02.934Z,15.63
2022-12-31T06:03:02.325Z,16.53
2022-12-31T06:05:51.237Z,15.73
2022-12-31T06:08:40.149Z,15.33
2022-12-31T06:11:30.301Z,15.50
2022-12-31T06:14:19.167Z,15.73
2022-12-31T06:17:07.869Z,15.33
2022-12-31T06:19:56.579Z,15.23
2022-12-31T06:22:45.392Z,16.40
2022-12-31T06:25:35.742Z,15.67
2022-12-31T06:28:25.796Z,15.33
2022-12-31T06:31:15.805Z,15.37
2022-12-31T06:34:04.761Z,15.10
2022-12-31T06:36:53.509Z,15.20
2022-12-31T06:39:42.475Z,15.23
2022-12-31T06:42:32.090Z,15.63
2022-12-31T06:45:22.255Z,14.87
2022-12-31T06:48:11.142Z,14.90
2022-12-31T06:51:05.478Z,15.40
2022-12-31T06:53:54.188Z,15.27
2022-12-31T06:56:43.985Z,14.57
2022-12-31T06:59:33.171Z,15.67
2022-12-31T07:02:37.695Z,14.90
2022-12-31T07:05:35.802Z,14.07
2022-12-31T07:08:45.529Z,14.37
2022-12-31T07:11:40.582Z,14.97
2022-12-31T07:14:37.689Z,14.40
2022-12-31T07:17:36.812Z,13.60
2022-12-31T07:20:26.154Z,13.80
2022-12-31T07:23:15.449Z,13.90
2022-12-31T07:26:10.349Z,14.50
2022-12-31T07:29:07.060Z,14.47
2022-12-31T07:32:04.885Z,13.60
2022-12-31T07:35:02.289Z,13.73
2022-12-31T07:38:00.824Z,12.73
2022-12-31T07:40:58.660Z,13.50
2022-12-31T07:44:01.062Z,12.90
2022-12-31T07:46:55.664Z,12.67
2022-12-31T07:49:45.513Z,12.80
2022-12-31T07:52:36.198Z,12.50
2022-12-31T07:55:24.871Z,12.13
2022-12-31T07:58:22.312Z,12.03
2022-12-31T08:01:14.814Z,11.97
2022-12-31T08:04:09.144Z,11.83
2022-12-31T08:07:04.583Z,11.70
2022-12-31T08:10:04.287Z,12.15
2022-12-31T08:12:59.866Z,11.90
2022-12-31T08:15:49.373Z,11.48
2022-12-31T08:18:38.422Z,11.80
2022-12-31T08:21:37.207Z,11.48
2022-12-31T08:24:31.957Z,11.93
2022-12-31T08:27:29.195Z,11.15
2022-12-31T08:30:22.014Z,11.63
2022-12-31T08:33:15.601Z,11.30
2022-12-31T08:36:19.542Z,11.15
2022-12-31T08:39:18.273Z,10.38
2022-12-31T08:42:20.839Z,11.15
2022-12-31T08:45:19.843Z,10.15
2022-12-31T08:48:20.388Z,10.18
2022-12-31T08:51:16.005Z,10.20
2022-12-31T08:54:05.348Z,10.50
2022-12-31T08:57:10.556Z,9.50
2022-12-31T09:00:07.068Z,9.60
2022-12-31T09:03:16.804Z,9.23
2022-12-31T09:06:14.927Z,9.13
2022-12-31T09:09:11.764Z,8.73
2022-12-31T09:12:07.163Z,8.57
2022-12-31T09:15:01.955Z,8.65
2022-12-31T09:17:52.279Z,8.10
2022-12-31T09:20:44.438Z,8.35
2022-12-31T09:23:33.938Z,8.68
2022-12-31T09:26:43.659Z,7.97
2022-12-31T09:29:44.629Z,7.85
2022-12-31T09:32:43.201Z,9.13
2022-12-31T09:35:37.721Z,8.27
2022-12-31T09:38:32.505Z,7.80
2022-12-31T09:41:46.983Z,7.90
2022-12-31T09:45:07.517Z,7.93
2022-12-31T09:48:46.916Z,8.38
2022-12-31T09:51:44.765Z,7.53
2022-12-31T09:54:48.063Z,8.13
2022-12-31T09:57:41.889Z,7.43
2022-12-31T10:00:39.455Z,8.05
2022-12-31T10:04:06.394Z,7.82
2022-12-31T10:07:07.556Z,8.10
2022-12-31T10:10:19.719Z,8.60
2022-12-31T10:13:37.349Z,8.13
2022-12-31T10:16:57.129Z,7.97
2022-12-31T10:20:20.554Z,7.78
2022-12-31T10:23:27.575Z,7.78
2022-12-31T10:26:36.311Z,7.97
2022-12-31T10:29:39.623Z,7.47
2022-12-31T10:32:41.229Z,7.65
2022-12-31T10:35:37.995Z,7.38
2022-12-31T10:38:35.486Z,7.13
2022-12-31T10:42:03.249Z,7.20
2022-12-31T10:45:36.667Z,7.03
2022-12-31T10:49:09.733Z,6.68
2022-12-31T10:52:25.108Z,7.07
2022-12-31T10:56:08.366Z,7.15
2022-12-31T10:59:26.774Z,6.95
2022-12-31T11:02:39.892Z,6.40
2022-12-31T11:05:57.929Z,7.03
2022-12-31T11:09:13.656Z,6.78
2022-12-31T11:12:11.608Z,6.47
2022-12-31T11:15:18.822Z,7.18
2022-12-31T11:18:16.728Z,6.55
2022-12-31T11:21:26.228Z,6.38
2022-12-31T11:24:32.884Z,6.60
2022-12-31T11:27:34.555Z,6.18
2022-12-31T11:30:28.740Z,6.30
2022-12-31T11:33:34.295Z,6.13
2022-12-31T11:36:32.897Z,6.25
2022-12-31T11:39:36.287Z,6.13
2022-12-31T11:42:34.061Z,6.45
2022-12-31T11:45:43.224Z,6.43
2022-12-31T11:48:46.790Z,6.45
2022-12-31T11:51:50.791Z,6.35
2022-12-31T11:54:50.513Z,5.93
2022-12-31T11:57:42.161Z,6.35
2022-12-31T12:00:33.309Z,5.93
2022-12-31T12:03:23.277Z,6.00
2022-12-31T12:06:16.586Z,5.45
2022-12-31T12:09:08.723Z,5.97
2022-12-31T12:12:02.941Z,5.20
2022-12-31T12:14:54.892Z,5.57
2022-12-31T12:17:43.683Z,5.60
2022-12-31T12:20:35.050Z,5.38
2022-12-31T12:23:27.210Z,5.43
2022-12-31T12:26:29.401Z,5.38
2022-12-31T12:29:20.963Z,4.90
2022-12-31T12:32:18.225Z,4.90
2022-12-31T12:35:17.490Z,5.35
2022-12-31T12:38:08.542Z,5.75
2022-12-31T12:41:01.908Z,5.70
2022-12-31T12:43:51.528Z,6.00
2022-12-31T12:46:48.191Z,5.40
2022-12-31T12:49:41.769Z,5.50
2022-12-31T12:52:46.901Z,5.90
2022-12-31T12:55:43.765Z,5.57
2022-12-31T12:58:44.202Z,5.90
2022-12-31T13:01:42.000Z,5.45
2022-12-31T13:04:49.171Z,5.20
2022-12-31T13:07:47.837Z,6.40
2022-12-31T13:11:06.215Z,5.28
2022-12-31T13:14:01.742Z,5.35
2022-12-31T13:17:00.859Z,5.30
2022-12-31T13:19:57.926Z,5.70
2022-12-31T13:22:53.640Z,5.75
2022-12-31T13:25:57.281Z,5.60
2022-12-31T13:28:49.109Z,6.03
2022-12-31T13:31:42.285Z,6.15
2022-12-31T13:34:34.949Z,5.60
2022-12-31T13:37:30.239Z,5.78
2022-12-31T13:40:23.929Z,5.95
2022-12-31T13:43:19.842Z,6.05
2022-12-31T13:46:19.345Z,5.85
2022-12-31T13:49:18.200Z,6.45
2022-12-31T13:52:20.505Z,5.75
2022-12-31T13:55:15.953Z,6.50
2022-12-31T13:58:10.839Z,5.63
2022-12-31T14:01:06.433Z,5.93
2022-12-31T14:04:00.973Z,5.20
2022-12-31T14:06:54.676Z,5.32
2022-12-31T14:09:43.585Z,5.40
2022-12-31T14:12:41.334Z,5.40
2022-12-31T14:15:34.686Z,5.65
2022-12-31T14:18:30.400Z,5.68
2022-12-31T14:21:24.747Z,5.38
2022-12-31T14:24:22.943Z,4.85
2022-12-31T14:27:18.554Z,4.80
2022-12-31T14:30:14.574Z,5.38
2022-12-31T14:33:15.459Z,5.22
2022-12-31T14:36:18.906Z,5.22
2022-12-31T14:39:27.933Z,5.15
2022-12-31T14:42:26.172Z,4.78
2022-12-31T14:45:43.322Z,4.82
2022-12-31T14:48:45.815Z,4.80
2022-12-31T14:51:37.057Z,4.80
2022-12-31T14:54:29.818Z,5.20
2022-12-31T14:57:26.347Z,5.28
2022-12-31T15:00:35.196Z,4.70
2022-12-31T15:03:27.969Z,4.57
2022-12-31T15:06:41.595Z,4.72
2022-12-31T15:10:09.420Z,4.68
2022-12-31T15:13:04.644Z,4.50
2022-12-31T15:16:20.027Z,5.00
2022-12-31T15:19:34.373Z,4.65
2022-12-31T15:22:39.356Z,5.50
2022-12-31T15:25:40.007Z,4.70
2022-12-31T15:28:34.823Z,4.68
2022-12-31T15:31:23.679Z,4.78
2022-12-31T15:34:26.875Z,4.70
2022-12-31T15:37:35.511Z,4.18
2022-12-31T15:40:25.433Z,4.85
2022-12-31T15:43:22.023Z,4.30
2022-12-31T15:46:17.619Z,4.55
2022-12-31T15:49:15.703Z,4.90
2022-12-31T15:52:08.420Z,4.60
2022-12-31T15:54:58.563Z,4.53
2022-12-31T15:57:47.907Z,4.82
2022-12-31T16:00:52.982Z,4.55
2022-12-31T16:03:46.387Z,4.45
2022-12-31T16:06:38.153Z,4.60
2022-12-31T16:09:28.771Z,4.80
2022-12-31T16:12:22.283Z,5.45
2022-12-31T16:15:21.765Z,5.00
2022-12-31T16:18:22.414Z,4.95
2022-12-31T16:21:30.284Z,4.88
2022-12-31T16:24:28.841Z,4.88
2022-12-31T16:27:18.542Z,4.85
2022-12-31T16:30:09.606Z,5.30
2022-12-31T16:33:01.491Z,4.63
2022-12-31T16:35:57.868Z,4.55
2022-12-31T16:38:47.236Z,5.07
2022-12-31T16:41:44.420Z,4.70
2022-12-31T16:44:33.138Z,4.80
2022-12-31T16:47:24.708Z,4.65
2022-12-31T16:50:18.907Z,4.50
2022-12-31T16:53:14.236Z,4.68
2022-12-31T16:56:08.860Z,5.15
2022-12-31T16:59:04.522Z,4.35
2022-12-31T17:01:56.098Z,5.35
2022-12-31T17:04:55.403Z,5.05
2022-12-31T17:07:45.009Z,4.40
2022-12-31T17:10:37.308Z,4.30
2022-12-31T17:13:30.907Z,4.68
2022-12-31T17:16:20.275Z,4.43
2022-12-31T17:19:09.309Z,4.30
2022-12-31T17:21:58.234Z,4.90
2022-12-31T17:24:50.131Z,4.32
2022-12-31T17:27:40.536Z,4.20
2022-12-31T17:30:41.467Z,4.82
2022-12-31T17:33:33.211Z,5.05
2022-12-31T17:36:24.341Z,4.57
2022-12-31T17:39:18.653Z,4.82
2022-12-31T17:42:09.514Z,4.70
2022-12-31T17:45:02.082Z,4.25
2022-12-31T17:47:54.030Z,4.75
2022-12-31T17:50:48.856Z,4.82
2022-12-31T17:53:38.415Z,5.00
2022-12-31T17:56:27.342Z,4.95
2022-12-31T17:59:19.039Z,4.85
2022-12-31T18:02:14.466Z,5.20
2022-12-31T18:05:03.380Z,4.90
2022-12-31T18:07:52.871Z,4.80
2022-12-31T18:10:43.559Z,5.47
2022-12-31T18:13:32.515Z,5.22
2022-12-31T18:16:22.067Z,5.18
2022-12-31T18:19:37.990Z,5.07
2022-12-31T18:22:24.656Z,4.80
2022-12-31T18:25:18.165Z,4.57
2022-12-31T18:28:12.923Z,5.15
2022-12-31T18:31:01.816Z,5.65
2022-12-31T18:33:51.933Z,5.82
2022-12-31T18:36:42.572Z,5.63
2022-12-31T18:39:31.647Z,5.50
2022-12-31T18:42:22.103Z,5.50
2022-12-31T18:45:17.199Z,5.45
2022-12-31T18:48:09.385Z,5.35
2022-12-31T18:50:58.283Z,6.22
2022-12-31T18:53:48.738Z,6.05
2022-12-31T18:56:41.856Z,8.20
2022-12-31T18:59:33.712Z,6.00
2022-12-31T19:02:22.421Z,5.30
2022-12-31T19:05:22.878Z,5.50
2022-12-31T19:08:11.533Z,5.47
2022-12-31T19:11:02.921Z,4.90
2022-12-31T19:13:53.203Z,5.10
2022-12-31T19:16:42.116Z,5.07
2022-12-31T19:19:31.090Z,4.97
2022-12-31T19:22:19.737Z,5.20
2022-12-31T19:25:18.384Z,5.03
2022-12-31T19:28:17.849Z,5.30
2022-12-31T19:31:07.470Z,6.40
2022-12-31T19:33:56.290Z,4.90
2022-12-31T19:36:45.341Z,5.22
2022-12-31T19:39:34.289Z,4.97
2022-12-31T19:42:23.322Z,5.20
2022-12-31T19:45:17.902Z,5.40
2022-12-31T19:48:07.093Z,5.43
2022-12-31T19:50:55.947Z,5.93
2022-12-31T19:53:45.937Z,5.53
2022-12-31T19:56:34.783Z,5.03
2022-12-31T19:59:23.517Z,5.00
2022-12-31T20:02:13.699Z,4.88
2022-12-31T20:05:02.590Z,5.93
2022-12-31T20:07:51.267Z,4.93
2022-12-31T20:10:40.736Z,4.97
2022-12-31T20:13:29.423Z,5.15
2022-12-31T20:16:21.158Z,5.25
2022-12-31T20:19:12.278Z,5.78
2022-12-31T20:22:01.033Z,5.00
2022-12-31T20:24:49.741Z,4.78
2022-12-31T20:27:38.641Z,5.45
2022-12-31T20:30:27.959Z,5.13
2022-12-31T20:33:19.141Z,5.57
2022-12-31T20:36:11.885Z,5.10
2022-12-31T20:39:00.683Z,5.57
2022-12-31T20:41:49.584Z,4.68
2022-12-31T20:44:38.353Z,5.00
2022-12-31T20:47:27.204Z,5.18
2022-12-31T20:50:16.399Z,5.60
2022-12-31T20:53:06.459Z,4.93
2022-12-31T20:55:55.334Z,5.20
2022-12-31T20:58:44.096Z,5.40
2022-12-31T21:01:55.461Z,6.32
2022-12-31T21:04:42.048Z,5.05
2022-12-31T21:07:30.928Z,6.13
2022-12-31T21:10:21.414Z,5.40
2022-12-31T21:13:09.441Z,5.40
2022-12-31T21:15:58.453Z,5.35
2022-12-31T21:18:48.189Z,5.80
2022-12-31T21:21:37.673Z,5.53
2022-12-31T21:24:27.255Z,5.18
2022-12-31T21:27:17.653Z,5.97
2022-12-31T21:30:22.366Z,4.85
2022-12-31T21:33:11.203Z,5.30
2022-12-31T21:36:04.468Z,5.07
2022-12-31T21:38:53.779Z,4.88
2022-12-31T21:41:54.379Z,5.40
2022-12-31T21:44:44.658Z,5.05
2022-12-31T21:47:51.286Z,4.80
2022-12-31T21:50:40.079Z,5.05
2022-12-31T21:53:36.187Z,5.03
2022-12-31T21:56:24.700Z,5.38
2022-12-31T21:59:30.884Z,5.57
2022-12-31T22:02:38.557Z,5.55
2022-12-31T22:05:27.304Z,5.00
2022-12-31T22:08:16.354Z,5.25
2022-12-31T22:11:05.123Z,5.72
2022-12-31T22:13:55.093Z,5.07
2022-12-31T22:16:43.838Z,5.20
2022-12-31T22:19:48.663Z,4.82
2022-12-31T22:22:42.981Z,5.25
2022-12-31T22:25:31.709Z,6.18
2022-12-31T22:28:38.229Z,5.88
2022-12-31T22:31:30.048Z,5.72
2022-12-31T22:34:19.484Z,5.03
2022-12-31T22:37:35.818Z,5.63
2022-12-31T22:40:18.828Z,4.70
2022-12-31T22:43:07.570Z,5.45
2022-12-31T22:45:56.561Z,5.07
2022-12-31T22:48:45.499Z,5.00
2022-12-31T22:51:55.794Z,5.25
2022-12-31T22:54:44.369Z,5.72
2022-12-31T22:57:33.392Z,5.47
2022-12-31T23:00:38.327Z,6.65
2022-12-31T23:03:27.119Z,41.10
2022-12-31T23:06:16.008Z,31.08
2022-12-31T23:09:22.246Z,21.75
2022-12-31T23:12:12.740Z,16.58
2022-12-31T23:15:18.562Z,15.70
2022-12-31T23:18:24.750Z,21.00
2022-12-31T23:21:30.937Z,23.08
2022-12-31T23:24:26.100Z,24.70
2022-12-31T23:27:16.845Z,22.92
2022-12-31T23:30:06.560Z,20.10
2022-12-31T23:32:55.385Z,18.23
2022-12-31T23:35:44.397Z,15.85
2022-12-31T23:38:33.188Z,14.43
2022-12-31T23:41:22.783Z,13.52
2022-12-31T23:44:13.384Z,11.50
2022-12-31T23:47:02.082Z,9.15
2022-12-31T23:49:50.942Z,8.43
2022-12-31T23:52:39.742Z,8.80
2022-12-31T23:55:28.455Z,9.10
2022-12-31T23:58:17.641Z,8.55
